sensor_id;sensor_type;location;lat;lon;timestamp;pressure;altitude;pressure_sealevel;temperature;humidity
42705;BME280;28342;42.594;23.414;2023-04-01T00:02:00;93616.28;;;13.35;49.02
42705;BME280;28342;42.594;23.414;2023-04-01T00:04:26;93619.91;;;13.27;50.29
42705;BME280;28342;42.594;23.414;2023-04-01T00:06:51;93613.09;;;13.14;50.82
42705;BME280;28342;42.594;23.414;2023-04-01T00:09:17;93605.97;;;12.86;52.66
42705;BME280;28342;42.594;23.414;2023-04-01T00:11:43;93622.34;;;12.73;53.66
42705;BME280;28342;42.594;23.414;2023-04-01T00:14:10;93599.81;;;12.54;53.54
42705;BME280;28342;42.594;23.414;2023-04-01T00:16:36;93611.78;;;12.33;54.28
42705;BME280;28342;42.594;23.414;2023-04-01T00:19:01;93626.63;;;12.34;55.52
42705;BME280;28342;42.594;23.414;2023-04-01T00:21:27;93621.94;;;12.15;54.89
42705;BME280;28342;42.594;23.414;2023-04-01T00:23:52;93621.59;;;12.16;55.07
42705;BME280;28342;42.594;23.414;2023-04-01T00:26:18;93619.84;;;12.08;55.69
42705;BME280;28342;42.594;23.414;2023-04-01T00:28:46;93618.78;;;11.97;56.67
42705;BME280;28342;42.594;23.414;2023-04-01T00:31:12;93590.00;;;11.75;57.20
42705;BME280;28342;42.594;23.414;2023-04-01T00:33:39;93626.88;;;11.88;57.50
42705;BME280;28342;42.594;23.414;2023-04-01T00:36:17;93628.53;;;11.93;57.62
42705;BME280;28342;42.594;23.414;2023-04-01T00:38:44;93616.16;;;11.85;58.71
42705;BME280;28342;42.594;23.414;2023-04-01T00:41:12;93626.31;;;11.95;58.65
42705;BME280;28342;42.594;23.414;2023-04-01T00:43:46;93603.28;;;11.75;59.14
42705;BME280;28342;42.594;23.414;2023-04-01T00:46:12;93593.63;;;11.42;59.74
42705;BME280;28342;42.594;23.414;2023-04-01T00:48:41;93584.78;;;11.26;60.27
42705;BME280;28342;42.594;23.414;2023-04-01T00:51:20;93595.16;;;11.43;60.73
42705;BME280;28342;42.594;23.414;2023-04-01T00:53:51;93582.44;;;11.49;61.03
42705;BME280;28342;42.594;23.414;2023-04-01T00:56:36;93594.06;;;11.44;62.16
42705;BME280;28342;42.594;23.414;2023-04-01T00:59:19;93585.41;;;11.47;61.10
42705;BME280;28342;42.594;23.414;2023-04-01T01:01:46;93587.09;;;11.52;60.93
42705;BME280;28342;42.594;23.414;2023-04-01T01:04:32;93576.72;;;11.34;61.55
42705;BME280;28342;42.594;23.414;2023-04-01T01:10:26;93577.59;;;11.38;61.79
42705;BME280;28342;42.594;23.414;2023-04-01T01:13:07;93568.22;;;11.04;62.58
42705;BME280;28342;42.594;23.414;2023-04-01T01:15:47;93520.22;;;10.73;62.05
42705;BME280;28342;42.594;23.414;2023-04-01T01:21:15;93552.28;;;10.80;63.03
42705;BME280;28342;42.594;23.414;2023-04-01T01:29:33;93559.56;;;10.71;64.17
42705;BME280;28342;42.594;23.414;2023-04-01T01:37:50;93559.69;;;10.74;64.17
42705;BME280;28342;42.594;23.414;2023-04-01T01:40:17;93545.84;;;10.69;63.48
42705;BME280;28342;42.594;23.414;2023-04-01T01:42:46;93534.38;;;10.77;62.91
42705;BME280;28342;42.594;23.414;2023-04-01T01:45:15;93541.22;;;10.78;63.75
42705;BME280;28342;42.594;23.414;2023-04-01T01:47:43;93519.88;;;10.62;63.03
42705;BME280;28342;42.594;23.414;2023-04-01T01:50:10;93537.34;;;10.63;62.70
42705;BME280;28342;42.594;23.414;2023-04-01T01:52:36;93523.97;;;10.47;63.53
42705;BME280;28342;42.594;23.414;2023-04-01T01:55:03;93537.44;;;10.42;65.70
42705;BME280;28342;42.594;23.414;2023-04-01T01:57:32;93513.22;;;10.32;65.08
42705;BME280;28342;42.594;23.414;2023-04-01T02:00:07;93510.72;;;10.47;64.84
42705;BME280;28342;42.594;23.414;2023-04-01T02:02:42;93492.56;;;10.37;64.50
42705;BME280;28342;42.594;23.414;2023-04-01T02:05:19;93481.50;;;10.23;64.25
42705;BME280;28342;42.594;23.414;2023-04-01T02:07:49;93508.47;;;10.37;63.81
42705;BME280;28342;42.594;23.414;2023-04-01T02:10:21;93508.38;;;10.34;63.71
42705;BME280;28342;42.594;23.414;2023-04-01T02:12:48;93480.53;;;10.40;63.89
42705;BME280;28342;42.594;23.414;2023-04-01T02:15:16;93476.00;;;10.40;64.12
42705;BME280;28342;42.594;23.414;2023-04-01T02:17:44;93485.41;;;10.50;64.54
42705;BME280;28342;42.594;23.414;2023-04-01T02:22:46;93472.78;;;10.23;66.22
42705;BME280;28342;42.594;23.414;2023-04-01T02:25:15;93475.00;;;10.33;65.33
42705;BME280;28342;42.594;23.414;2023-04-01T02:27:44;93466.84;;;10.38;64.73
42705;BME280;28342;42.594;23.414;2023-04-01T02:30:12;93474.25;;;10.32;65.17
42705;BME280;28342;42.594;23.414;2023-04-01T02:32:39;93444.66;;;10.30;61.21
42705;BME280;28342;42.594;23.414;2023-04-01T02:35:07;93465.06;;;10.54;63.13
42705;BME280;28342;42.594;23.414;2023-04-01T02:37:34;93463.09;;;10.51;63.61
42705;BME280;28342;42.594;23.414;2023-04-01T02:40:05;93465.41;;;10.65;64.23
42705;BME280;28342;42.594;23.414;2023-04-01T02:42:33;93456.56;;;10.48;63.58
42705;BME280;28342;42.594;23.414;2023-04-01T02:44:58;93463.88;;;10.64;63.93
42705;BME280;28342;42.594;23.414;2023-04-01T02:47:24;93472.94;;;10.63;64.14
42705;BME280;28342;42.594;23.414;2023-04-01T02:49:50;93474.13;;;10.53;63.94
42705;BME280;28342;42.594;23.414;2023-04-01T02:52:15;93466.50;;;10.52;63.40
42705;BME280;28342;42.594;23.414;2023-04-01T02:54:41;93478.66;;;10.53;63.75
42705;BME280;28342;42.594;23.414;2023-04-01T02:57:06;93480.88;;;10.51;62.04
42705;BME280;28342;42.594;23.414;2023-04-01T02:59:32;93483.78;;;10.58;62.29
42705;BME280;28342;42.594;23.414;2023-04-01T03:01:57;93492.03;;;10.68;61.38
42705;BME280;28342;42.594;23.414;2023-04-01T03:04:23;93493.72;;;10.73;61.29
42705;BME280;28342;42.594;23.414;2023-04-01T03:06:49;93500.09;;;10.84;60.23
42705;BME280;28342;42.594;23.414;2023-04-01T03:09:14;93501.97;;;10.96;59.94
42705;BME280;28342;42.594;23.414;2023-04-01T03:11:41;93513.59;;;10.91;60.17
42705;BME280;28342;42.594;23.414;2023-04-01T03:14:06;93520.22;;;10.97;59.92
42705;BME280;28342;42.594;23.414;2023-04-01T03:16:32;93518.44;;;11.01;59.24
42705;BME280;28342;42.594;23.414;2023-04-01T03:18:58;93522.00;;;11.05;58.51
42705;BME280;28342;42.594;23.414;2023-04-01T03:21:25;93495.03;;;10.91;58.81
42705;BME280;28342;42.594;23.414;2023-04-01T03:23:51;93511.56;;;11.13;58.80
42705;BME280;28342;42.594;23.414;2023-04-01T03:26:17;93489.91;;;10.98;59.15
42705;BME280;28342;42.594;23.414;2023-04-01T03:28:43;93516.66;;;11.18;59.09
42705;BME280;28342;42.594;23.414;2023-04-01T03:31:08;93509.16;;;11.07;59.37
42705;BME280;28342;42.594;23.414;2023-04-01T03:33:34;93508.25;;;11.16;59.13
42705;BME280;28342;42.594;23.414;2023-04-01T03:36:00;93509.59;;;10.97;60.36
42705;BME280;28342;42.594;23.414;2023-04-01T03:38:25;93521.31;;;11.08;60.63
42705;BME280;28342;42.594;23.414;2023-04-01T03:40:51;93507.63;;;10.82;60.91
42705;BME280;28342;42.594;23.414;2023-04-01T03:43:16;93502.09;;;10.75;61.80
42705;BME280;28342;42.594;23.414;2023-04-01T03:45:49;93503.84;;;10.83;61.40
42705;BME280;28342;42.594;23.414;2023-04-01T03:48:14;93495.47;;;10.69;61.33
42705;BME280;28342;42.594;23.414;2023-04-01T03:50:40;93519.09;;;10.86;57.94
42705;BME280;28342;42.594;23.414;2023-04-01T03:53:06;93488.47;;;11.01;58.27
42705;BME280;28342;42.594;23.414;2023-04-01T03:55:31;93498.75;;;11.02;57.47
42705;BME280;28342;42.594;23.414;2023-04-01T03:57:57;93477.22;;;11.04;59.21
42705;BME280;28342;42.594;23.414;2023-04-01T04:00:22;93491.03;;;11.10;57.39
42705;BME280;28342;42.594;23.414;2023-04-01T04:02:48;93476.06;;;11.17;56.69
42705;BME280;28342;42.594;23.414;2023-04-01T04:05:14;93445.00;;;11.18;56.46
42705;BME280;28342;42.594;23.414;2023-04-01T04:07:39;93440.56;;;11.22;57.11
42705;BME280;28342;42.594;23.414;2023-04-01T04:10:05;93420.28;;;11.29;57.26
42705;BME280;28342;42.594;23.414;2023-04-01T04:12:31;93417.50;;;11.38;57.88
42705;BME280;28342;42.594;23.414;2023-04-01T04:14:57;93423.00;;;11.45;57.59
42705;BME280;28342;42.594;23.414;2023-04-01T04:17:22;93412.50;;;11.49;57.74
42705;BME280;28342;42.594;23.414;2023-04-01T04:19:48;93411.47;;;11.53;57.12
42705;BME280;28342;42.594;23.414;2023-04-01T04:22:13;93408.88;;;11.41;57.41
42705;BME280;28342;42.594;23.414;2023-04-01T04:24:38;93411.91;;;11.55;57.16
42705;BME280;28342;42.594;23.414;2023-04-01T04:27:04;93394.69;;;11.49;56.73
42705;BME280;28342;42.594;23.414;2023-04-01T04:29:30;93391.53;;;11.59;57.18
42705;BME280;28342;42.594;23.414;2023-04-01T04:31:55;93388.44;;;11.57;56.93
42705;BME280;28342;42.594;23.414;2023-04-01T04:34:21;93366.75;;;11.55;56.90
42705;BME280;28342;42.594;23.414;2023-04-01T04:36:48;93374.81;;;11.59;56.32
42705;BME280;28342;42.594;23.414;2023-04-01T04:39:14;93373.34;;;11.61;56.43
42705;BME280;28342;42.594;23.414;2023-04-01T04:41:39;93380.13;;;11.59;56.19
42705;BME280;28342;42.594;23.414;2023-04-01T04:44:05;93357.34;;;11.58;55.08
42705;BME280;28342;42.594;23.414;2023-04-01T04:46:31;93340.56;;;11.54;54.29
42705;BME280;28342;42.594;23.414;2023-04-01T04:48:57;93326.84;;;11.67;50.74
42705;BME280;28342;42.594;23.414;2023-04-01T04:51:22;93348.38;;;11.94;48.39
42705;BME280;28342;42.594;23.414;2023-04-01T04:53:58;93330.91;;;11.93;51.63
42705;BME280;28342;42.594;23.414;2023-04-01T04:56:24;93347.47;;;12.02;51.76
42705;BME280;28342;42.594;23.414;2023-04-01T04:58:51;93286.66;;;11.69;46.88
42705;BME280;28342;42.594;23.414;2023-04-01T05:01:18;93322.75;;;12.17;44.98
42705;BME280;28342;42.594;23.414;2023-04-01T05:03:43;93335.56;;;12.47;46.47
42705;BME280;28342;42.594;23.414;2023-04-01T05:06:11;93341.81;;;12.54;46.19
42705;BME280;28342;42.594;23.414;2023-04-01T05:08:37;93314.81;;;12.37;44.55
42705;BME280;28342;42.594;23.414;2023-04-01T05:11:07;93327.84;;;12.57;47.06
42705;BME280;28342;42.594;23.414;2023-04-01T05:13:35;93322.66;;;12.65;46.69
42705;BME280;28342;42.594;23.414;2023-04-01T05:16:00;93323.59;;;12.72;45.49
42705;BME280;28342;42.594;23.414;2023-04-01T05:18:25;93322.72;;;12.68;43.85
42705;BME280;28342;42.594;23.414;2023-04-01T05:20:53;93315.38;;;12.81;42.19
42705;BME280;28342;42.594;23.414;2023-04-01T05:23:19;93319.81;;;12.93;43.09
42705;BME280;28342;42.594;23.414;2023-04-01T05:25:49;93314.34;;;13.05;41.25
42705;BME280;28342;42.594;23.414;2023-04-01T05:28:18;93322.72;;;13.23;41.90
42705;BME280;28342;42.594;23.414;2023-04-01T05:30:44;93296.69;;;13.16;41.35
42705;BME280;28342;42.594;23.414;2023-04-01T05:33:12;93291.38;;;13.35;40.90
42705;BME280;28342;42.594;23.414;2023-04-01T05:35:38;93286.22;;;13.46;39.96
42705;BME280;28342;42.594;23.414;2023-04-01T05:38:04;93297.31;;;13.71;40.47
42705;BME280;28342;42.594;23.414;2023-04-01T05:40:30;93305.09;;;13.80;40.41
42705;BME280;28342;42.594;23.414;2023-04-01T05:42:55;93312.00;;;13.84;40.34
42705;BME280;28342;42.594;23.414;2023-04-01T05:45:21;93287.09;;;13.99;39.71
42705;BME280;28342;42.594;23.414;2023-04-01T05:47:49;93267.84;;;14.10;40.66
42705;BME280;28342;42.594;23.414;2023-04-01T05:50:15;93291.03;;;14.32;39.68
42705;BME280;28342;42.594;23.414;2023-04-01T05:52:40;93280.19;;;14.44;39.44
42705;BME280;28342;42.594;23.414;2023-04-01T05:55:06;93289.50;;;14.57;39.14
42705;BME280;28342;42.594;23.414;2023-04-01T05:57:32;93291.63;;;14.75;38.61
42705;BME280;28342;42.594;23.414;2023-04-01T05:59:57;93278.75;;;14.84;38.67
42705;BME280;28342;42.594;23.414;2023-04-01T06:02:23;93282.66;;;14.90;38.58
42705;BME280;28342;42.594;23.414;2023-04-01T06:04:49;93299.16;;;14.99;38.68
42705;BME280;28342;42.594;23.414;2023-04-01T06:07:17;93283.31;;;15.13;38.50
42705;BME280;28342;42.594;23.414;2023-04-01T06:09:44;93258.81;;;15.04;38.35
42705;BME280;28342;42.594;23.414;2023-04-01T06:18:00;93261.09;;;15.06;38.26
42705;BME280;28342;42.594;23.414;2023-04-01T06:20:40;93271.75;;;15.02;38.27
42705;BME280;28342;42.594;23.414;2023-04-01T06:23:36;93274.88;;;15.08;38.37
42705;BME280;28342;42.594;23.414;2023-04-01T06:34:42;93267.69;;;15.15;37.52
42705;BME280;28342;42.594;23.414;2023-04-01T06:42:39;93264.22;;;15.11;42.19
42705;BME280;28342;42.594;23.414;2023-04-01T06:47:52;93248.56;;;14.46;46.66
42705;BME280;28342;42.594;23.414;2023-04-01T06:50:25;93248.03;;;14.37;47.95
42705;BME280;28342;42.594;23.414;2023-04-01T06:55:41;93236.34;;;14.19;48.50
42705;BME280;28342;42.594;23.414;2023-04-01T06:58:23;93237.88;;;14.20;48.33
42705;BME280;28342;42.594;23.414;2023-04-01T07:00:57;93211.91;;;14.13;49.07
42705;BME280;28342;42.594;23.414;2023-04-01T07:03:39;93226.28;;;14.35;48.77
42705;BME280;28342;42.594;23.414;2023-04-01T07:06:15;93221.06;;;14.16;50.00
42705;BME280;28342;42.594;23.414;2023-04-01T07:08:43;93218.78;;;14.14;50.91
42705;BME280;28342;42.594;23.414;2023-04-01T07:11:16;93223.31;;;13.87;52.43
42705;BME280;28342;42.594;23.414;2023-04-01T07:14:00;93215.44;;;13.94;51.99
42705;BME280;28342;42.594;23.414;2023-04-01T07:16:39;93216.25;;;13.72;52.83
42705;BME280;28342;42.594;23.414;2023-04-01T07:19:12;93217.56;;;13.59;52.66
42705;BME280;28342;42.594;23.414;2023-04-01T07:21:47;93206.91;;;13.59;52.52
42705;BME280;28342;42.594;23.414;2023-04-01T07:24:24;93192.44;;;13.14;55.31
42705;BME280;28342;42.594;23.414;2023-04-01T07:26:54;93193.63;;;13.16;54.06
42705;BME280;28342;42.594;23.414;2023-04-01T07:29:20;93199.91;;;12.85;55.48
42705;BME280;28342;42.594;23.414;2023-04-01T07:40:45;93226.44;;;13.21;56.60
42705;BME280;28342;42.594;23.414;2023-04-01T07:48:42;93203.91;;;13.37;57.00
42705;BME280;28342;42.594;23.414;2023-04-01T07:51:27;93216.91;;;13.42;56.68
42705;BME280;28342;42.594;23.414;2023-04-01T07:59:10;93218.53;;;13.96;55.42
42705;BME280;28342;42.594;23.414;2023-04-01T08:02:00;93207.22;;;14.06;54.54
42705;BME280;28342;42.594;23.414;2023-04-01T08:04:53;93217.19;;;14.10;53.95
42705;BME280;28342;42.594;23.414;2023-04-01T08:10:33;93222.00;;;14.27;55.68
42705;BME280;28342;42.594;23.414;2023-04-01T08:16:15;93174.47;;;14.06;56.75
42705;BME280;28342;42.594;23.414;2023-04-01T08:21:35;93182.69;;;14.50;55.76
42705;BME280;28342;42.594;23.414;2023-04-01T08:24:38;93197.13;;;15.16;55.68
42705;BME280;28342;42.594;23.414;2023-04-01T08:30:10;93174.94;;;15.57;52.98
42705;BME280;28342;42.594;23.414;2023-04-01T08:32:43;93165.72;;;15.47;52.15
42705;BME280;28342;42.594;23.414;2023-04-01T08:35:30;93171.25;;;15.68;51.99
42705;BME280;28342;42.594;23.414;2023-04-01T08:38:01;93141.88;;;15.75;52.51
42705;BME280;28342;42.594;23.414;2023-04-01T08:41:06;93143.22;;;16.06;51.95
42705;BME280;28342;42.594;23.414;2023-04-01T08:44:00;93119.75;;;16.62;50.31
42705;BME280;28342;42.594;23.414;2023-04-01T08:49:30;93109.56;;;17.24;48.75
42705;BME280;28342;42.594;23.414;2023-04-01T09:00:36;93098.00;;;19.52;43.25
42705;BME280;28342;42.594;23.414;2023-04-01T09:06:19;93108.47;;;20.59;41.31
42705;BME280;28342;42.594;23.414;2023-04-01T09:08:52;93102.81;;;20.81;40.00
42705;BME280;28342;42.594;23.414;2023-04-01T09:34:53;93083.38;;;20.93;35.79
42705;BME280;28342;42.594;23.414;2023-04-01T09:40:42;93081.03;;;20.34;36.11
42705;BME280;28342;42.594;23.414;2023-04-01T09:46:37;93078.25;;;20.11;36.33
42705;BME280;28342;42.594;23.414;2023-04-01T10:00:15;93066.59;;;19.38;37.68
42705;BME280;28342;42.594;23.414;2023-04-01T10:03:19;93070.53;;;19.30;38.29
42705;BME280;28342;42.594;23.414;2023-04-01T10:30:58;93022.63;;;18.59;41.30
42705;BME280;28342;42.594;23.414;2023-04-01T10:50:33;92986.31;;;19.40;33.79
42705;BME280;28342;42.594;23.414;2023-04-01T11:12:20;92975.50;;;18.47;33.79
42705;BME280;28342;42.594;23.414;2023-04-01T11:14:54;92972.78;;;18.51;34.93
42705;BME280;28342;42.594;23.414;2023-04-01T11:44:34;93016.72;;;18.12;36.01
42705;BME280;28342;42.594;23.414;2023-04-01T11:50:17;93141.69;;;16.85;50.96
42705;BME280;28342;42.594;23.414;2023-04-01T11:53:02;93133.03;;;16.33;54.96
42705;BME280;28342;42.594;23.414;2023-04-01T12:01:56;93234.59;;;14.56;68.82
42705;BME280;28342;42.594;23.414;2023-04-01T12:15:36;93228.47;;;13.50;77.65
42705;BME280;28342;42.594;23.414;2023-04-01T12:26:35;93233.13;;;13.14;78.03
42705;BME280;28342;42.594;23.414;2023-04-01T12:29:08;93209.09;;;13.30;78.78
42705;BME280;28342;42.594;23.414;2023-04-01T12:32:02;93206.16;;;13.35;79.00
42705;BME280;28342;42.594;23.414;2023-04-01T12:41:04;93201.66;;;13.39;78.74
42705;BME280;28342;42.594;23.414;2023-04-01T12:46:00;93226.16;;;13.49;76.46
42705;BME280;28342;42.594;23.414;2023-04-01T12:48:43;93209.16;;;13.57;78.90
42705;BME280;28342;42.594;23.414;2023-04-01T12:51:25;93216.00;;;13.58;81.27
42705;BME280;28342;42.594;23.414;2023-04-01T13:10:44;93210.25;;;13.10;81.67
42705;BME280;28342;42.594;23.414;2023-04-01T13:16:26;93200.41;;;13.14;82.25
42705;BME280;28342;42.594;23.414;2023-04-01T13:19:07;93200.59;;;13.21;81.10
42705;BME280;28342;42.594;23.414;2023-04-01T13:21:55;93157.00;;;13.10;83.50
42705;BME280;28342;42.594;23.414;2023-04-01T13:24:44;93113.13;;;13.23;81.99
42705;BME280;28342;42.594;23.414;2023-04-01T13:27:42;93074.94;;;13.38;80.39
42705;BME280;28342;42.594;23.414;2023-04-01T13:43:45;93094.19;;;13.55;78.85
42705;BME280;28342;42.594;23.414;2023-04-01T14:03:15;93047.72;;;15.38;72.01
42705;BME280;28342;42.594;23.414;2023-04-01T14:11:19;93053.25;;;15.66;68.59
42705;BME280;28342;42.594;23.414;2023-04-01T14:25:25;93021.38;;;16.16;63.45
42705;BME280;28342;42.594;23.414;2023-04-01T14:31:23;93019.84;;;16.15;59.17
42705;BME280;28342;42.594;23.414;2023-04-01T14:39:43;93012.03;;;15.67;61.00
42705;BME280;28342;42.594;23.414;2023-04-01T14:45:45;92986.72;;;15.54;61.74
42705;BME280;28342;42.594;23.414;2023-04-01T14:53:54;92999.81;;;15.70;64.32
42705;BME280;28342;42.594;23.414;2023-04-01T14:56:39;93018.91;;;15.75;64.68
42705;BME280;28342;42.594;23.414;2023-04-01T14:59:29;93017.97;;;15.43;65.93
42705;BME280;28342;42.594;23.414;2023-04-01T15:02:02;93012.53;;;15.29;66.20
42705;BME280;28342;42.594;23.414;2023-04-01T15:07:58;93003.28;;;15.15;67.48
42705;BME280;28342;42.594;23.414;2023-04-01T15:13:16;93017.00;;;15.10;63.43
42705;BME280;28342;42.594;23.414;2023-04-01T15:26:55;92998.81;;;15.30;57.27
42705;BME280;28342;42.594;23.414;2023-04-01T15:29:55;93010.59;;;15.25;55.15
42705;BME280;28342;42.594;23.414;2023-04-01T15:35:36;93033.38;;;15.09;58.88
42705;BME280;28342;42.594;23.414;2023-04-01T15:38:13;93051.31;;;15.08;65.42
42705;BME280;28342;42.594;23.414;2023-04-01T15:54:25;93049.28;;;14.50;69.27
42705;BME280;28342;42.594;23.414;2023-04-01T15:57:13;93038.59;;;14.47;70.84
42705;BME280;28342;42.594;23.414;2023-04-01T16:00:05;93140.38;;;14.52;68.37
42705;BME280;28342;42.594;23.414;2023-04-01T16:02:49;93240.88;;;13.42;65.11
42705;BME280;28342;42.594;23.414;2023-04-01T16:26:39;93336.50;;;9.75;85.54
42705;BME280;28342;42.594;23.414;2023-04-01T16:29:17;93332.59;;;9.60;85.73
42705;BME280;28342;42.594;23.414;2023-04-01T16:31:59;93314.94;;;9.40;89.52
42705;BME280;28342;42.594;23.414;2023-04-01T16:34:55;93306.16;;;9.15;88.77
42705;BME280;28342;42.594;23.414;2023-04-01T16:37:29;93315.28;;;9.38;89.18
42705;BME280;28342;42.594;23.414;2023-04-01T16:40:24;93347.22;;;9.33;90.10
42705;BME280;28342;42.594;23.414;2023-04-01T16:43:15;93335.41;;;9.31;88.92
42705;BME280;28342;42.594;23.414;2023-04-01T16:48:17;93352.16;;;9.22;87.59
42705;BME280;28342;42.594;23.414;2023-04-01T16:53:42;93321.63;;;8.92;88.29
42705;BME280;28342;42.594;23.414;2023-04-01T16:56:27;93287.41;;;8.75;87.54
42705;BME280;28342;42.594;23.414;2023-04-01T17:06:58;93293.81;;;8.86;87.22
42705;BME280;28342;42.594;23.414;2023-04-01T17:12:50;93351.75;;;8.58;88.64
42705;BME280;28342;42.594;23.414;2023-04-01T17:15:32;93347.09;;;8.34;88.57
42705;BME280;28342;42.594;23.414;2023-04-01T17:21:25;93356.81;;;8.13;90.17
42705;BME280;28342;42.594;23.414;2023-04-01T17:24:12;93341.03;;;7.95;89.77
42705;BME280;28342;42.594;23.414;2023-04-01T17:35:00;93373.47;;;8.04;88.69
42705;BME280;28342;42.594;23.414;2023-04-01T17:37:51;93398.53;;;8.28;88.60
42705;BME280;28342;42.594;23.414;2023-04-01T17:40:31;93385.63;;;8.35;88.03
42705;BME280;28342;42.594;23.414;2023-04-01T17:43:12;93385.47;;;8.31;85.38
42705;BME280;28342;42.594;23.414;2023-04-01T17:53:33;93407.56;;;8.56;82.15
42705;BME280;28342;42.594;23.414;2023-04-01T17:56:14;93414.38;;;8.57;82.78
42705;BME280;28342;42.594;23.414;2023-04-01T18:04:28;93406.56;;;8.90;79.95
42705;BME280;28342;42.594;23.414;2023-04-01T18:09:40;93403.06;;;8.98;79.47
42705;BME280;28342;42.594;23.414;2023-04-01T18:18:10;93421.34;;;9.12;78.03
42705;BME280;28342;42.594;23.414;2023-04-01T18:20:46;93428.75;;;8.98;78.62
42705;BME280;28342;42.594;23.414;2023-04-01T18:26:04;93413.00;;;8.81;77.07
42705;BME280;28342;42.594;23.414;2023-04-01T18:28:41;93421.19;;;8.88;76.90
42705;BME280;28342;42.594;23.414;2023-04-01T18:31:13;93420.22;;;8.72;80.31
42705;BME280;28342;42.594;23.414;2023-04-01T18:45:43;93416.56;;;8.26;79.78
42705;BME280;28342;42.594;23.414;2023-04-01T18:48:41;93440.75;;;8.45;80.13
42705;BME280;28342;42.594;23.414;2023-04-01T18:51:14;93442.13;;;8.51;79.71
42705;BME280;28342;42.594;23.414;2023-04-01T18:53:48;93452.97;;;8.58;78.21
42705;BME280;28342;42.594;23.414;2023-04-01T18:56:24;93471.19;;;8.81;78.78
42705;BME280;28342;42.594;23.414;2023-04-01T18:59:03;93482.28;;;8.95;80.22
42705;BME280;28342;42.594;23.414;2023-04-01T19:01:35;93464.59;;;8.87;80.04
42705;BME280;28342;42.594;23.414;2023-04-01T19:06:45;93464.88;;;8.94;77.44
42705;BME280;28342;42.594;23.414;2023-04-01T19:20:49;93479.84;;;8.90;76.94
42705;BME280;28342;42.594;23.414;2023-04-01T19:23:28;93498.91;;;9.25;77.47
42705;BME280;28342;42.594;23.414;2023-04-01T19:25:49;93480.84;;;9.06;74.60
42705;BME280;28342;42.594;23.414;2023-04-01T19:28:24;93510.94;;;9.14;77.28
42705;BME280;28342;42.594;23.414;2023-04-01T19:41:23;93532.88;;;9.14;76.72
42705;BME280;28342;42.594;23.414;2023-04-01T19:46:42;93521.69;;;8.88;76.15
42705;BME280;28342;42.594;23.414;2023-04-01T19:49:21;93545.66;;;9.12;77.08
42705;BME280;28342;42.594;23.414;2023-04-01T19:59:54;93547.94;;;9.22;75.36
42705;BME280;28342;42.594;23.414;2023-04-01T20:02:26;93558.69;;;9.17;75.05
42705;BME280;28342;42.594;23.414;2023-04-01T20:04:55;93550.97;;;9.12;74.50
42705;BME280;28342;42.594;23.414;2023-04-01T20:10:33;93563.91;;;9.35;73.23
42705;BME280;28342;42.594;23.414;2023-04-01T20:13:16;93566.47;;;9.43;73.39
42705;BME280;28342;42.594;23.414;2023-04-01T20:15:46;93557.31;;;9.20;73.13
42705;BME280;28342;42.594;23.414;2023-04-01T20:18:18;93553.03;;;9.27;72.89
42705;BME280;28342;42.594;23.414;2023-04-01T20:23:45;93550.34;;;9.36;72.71
42705;BME280;28342;42.594;23.414;2023-04-01T20:26:20;93546.72;;;9.41;72.50
42705;BME280;28342;42.594;23.414;2023-04-01T20:29:07;93550.19;;;9.33;72.09
42705;BME280;28342;42.594;23.414;2023-04-01T20:31:42;93547.63;;;9.24;73.90
42705;BME280;28342;42.594;23.414;2023-04-01T20:37:06;93565.38;;;9.23;71.71
42705;BME280;28342;42.594;23.414;2023-04-01T20:51:05;93563.25;;;9.38;74.96
42705;BME280;28342;42.594;23.414;2023-04-01T20:53:38;93552.97;;;9.15;74.59
42705;BME280;28342;42.594;23.414;2023-04-01T20:56:31;93538.63;;;8.87;71.37
42705;BME280;28342;42.594;23.414;2023-04-01T21:07:54;93544.00;;;8.69;70.23
42705;BME280;28342;42.594;23.414;2023-04-01T21:27:45;93587.72;;;8.67;71.60
42705;BME280;28342;42.594;23.414;2023-04-01T21:46:28;93566.47;;;8.93;74.12
42705;BME280;28342;42.594;23.414;2023-04-01T21:52:26;93562.50;;;8.78;69.22
42705;BME280;28342;42.594;23.414;2023-04-01T22:06:51;93548.47;;;8.48;68.90
42705;BME280;28342;42.594;23.414;2023-04-01T22:12:17;93554.78;;;8.64;68.52
42705;BME280;28342;42.594;23.414;2023-04-01T22:31:23;93569.34;;;8.71;72.80
42705;BME280;28342;42.594;23.414;2023-04-01T22:34:15;93566.22;;;8.22;72.85
42705;BME280;28342;42.594;23.414;2023-04-01T22:36:50;93576.78;;;8.22;72.76
42705;BME280;28342;42.594;23.414;2023-04-01T22:42:01;93550.75;;;7.42;75.69
42705;BME280;28342;42.594;23.414;2023-04-01T22:47:10;93584.59;;;7.58;75.12
42705;BME280;28342;42.594;23.414;2023-04-01T22:49:51;93568.16;;;7.43;74.54
42705;BME280;28342;42.594;23.414;2023-04-01T22:54:52;93601.06;;;7.72;76.02
42705;BME280;28342;42.594;23.414;2023-04-01T22:57:44;93595.16;;;7.75;75.96
42705;BME280;28342;42.594;23.414;2023-04-01T23:00:18;93579.81;;;7.51;76.10
42705;BME280;28342;42.594;23.414;2023-04-01T23:03:21;93605.09;;;7.61;75.79
42705;BME280;28342;42.594;23.414;2023-04-01T23:05:51;93593.59;;;7.48;76.92
42705;BME280;28342;42.594;23.414;2023-04-01T23:11:12;93573.91;;;7.37;70.87
42705;BME280;28342;42.594;23.414;2023-04-01T23:13:49;93554.66;;;7.54;70.69
42705;BME280;28342;42.594;23.414;2023-04-01T23:16:23;93578.09;;;7.81;69.55
42705;BME280;28342;42.594;23.414;2023-04-01T23:22:31;93580.56;;;8.03;69.31
42705;BME280;28342;42.594;23.414;2023-04-01T23:26:25;93581.47;;;8.07;69.49
42705;BME280;28342;42.594;23.414;2023-04-01T23:28:32;93594.22;;;8.05;70.96
42705;BME280;28342;42.594;23.414;2023-04-01T23:31:03;93586.31;;;7.71;72.13
42705;BME280;28342;42.594;23.414;2023-04-01T23:33:30;93589.59;;;7.68;73.13
42705;BME280;28342;42.594;23.414;2023-04-01T23:36:01;93596.09;;;7.79;71.63